KFSE

Details ICAO KFSE
Name FOSSTON MUNI
Region United States
Timezone America/Chicago (UTC-6.0)
Plans Departing 0
Arriving 1
Stats Elevation 1,277 ft / 389 m (AMSL)
Location 47.592829° -95.773488°
Runways 1
Magnetic Variation 2.032° E
Sunrise 2017-12-11 14:02:52 UTC / 2017-12-11 08:02:52 Local
Sunset 2017-12-11 22:32:59 UTC / 2017-12-11 16:32:59 Local
Advertisement - Login to hide

Runways

ID Width Length Bearing (true) Bearing (mag) Surface Threshold Offset Overrun Length
16 75 ft / 23 m 3,503 ft / 1,068 m 167.46° 165.43° Asphalt 0 ft / 0 m 0 ft / 0 m
34 75 ft / 23 m 3,503 ft / 1,068 m 347.47° 345.44° Asphalt 0 ft / 0 m 0 ft / 0 m

Map

Weather


0- 5 10 15 20 25 30 35+ Temperature / ° C

Clouds and Precipitation
Forecast for 2017-12-12 06:00 UTC. Updated an hour ago

Ground ~20,000 ft ~40,000 ft Winds

METAR

KFSE 120435Z AUTO 00000KT 10SM CLR M19/M22 A3028 RMK AO2

TAF

Not found

Frequencies

Unicom 122.90 MHz CTAF
Warning: Do not use this data for real-world aviation or navigation. No guarantee of current accuracy is given.